sensor_id;sensor_type;location;lat;lon;timestamp;P1;durP1;ratioP1;P2;durP2;ratioP2
41059;SDS011;26811;53.160;8.202;2023-02-28T00:03:10;21.40;;;12.63;;
41059;SDS011;26811;53.160;8.202;2023-02-28T00:08:10;26.75;;;12.20;;
41059;SDS011;26811;53.160;8.202;2023-02-28T00:13:11;22.80;;;11.70;;
41059;SDS011;26811;53.160;8.202;2023-02-28T00:18:13;18.60;;;11.32;;
41059;SDS011;26811;53.160;8.202;2023-02-28T00:23:13;23.63;;;12.13;;
41059;SDS011;26811;53.160;8.202;2023-02-28T00:28:14;23.95;;;12.38;;
41059;SDS011;26811;53.160;8.202;2023-02-28T00:33:14;19.38;;;10.68;;
41059;SDS011;26811;53.160;8.202;2023-02-28T00:38:15;18.85;;;10.43;;
41059;SDS011;26811;53.160;8.202;2023-02-28T00:43:16;18.95;;;10.18;;
41059;SDS011;26811;53.160;8.202;2023-02-28T00:48:16;17.67;;;10.15;;
41059;SDS011;26811;53.160;8.202;2023-02-28T00:53:17;17.08;;;10.07;;
41059;SDS011;26811;53.160;8.202;2023-02-28T00:58:17;19.20;;;10.60;;
41059;SDS011;26811;53.160;8.202;2023-02-28T01:03:18;19.05;;;10.27;;
41059;SDS011;26811;53.160;8.202;2023-02-28T01:08:20;17.17;;;9.95;;
41059;SDS011;26811;53.160;8.202;2023-02-28T01:13:20;16.58;;;9.75;;
41059;SDS011;26811;53.160;8.202;2023-02-28T01:18:23;18.20;;;9.95;;
41059;SDS011;26811;53.160;8.202;2023-02-28T01:23:24;16.40;;;10.35;;
41059;SDS011;26811;53.160;8.202;2023-02-28T01:28:25;16.02;;;10.05;;
41059;SDS011;26811;53.160;8.202;2023-02-28T01:33:25;17.67;;;10.15;;
41059;SDS011;26811;53.160;8.202;2023-02-28T01:38:26;16.58;;;9.82;;
41059;SDS011;26811;53.160;8.202;2023-02-28T01:43:31;19.10;;;10.35;;
41059;SDS011;26811;53.160;8.202;2023-02-28T01:48:49;17.50;;;9.30;;
41059;SDS011;26811;53.160;8.202;2023-02-28T01:54:12;24.42;;;12.32;;
41059;SDS011;26811;53.160;8.202;2023-02-28T01:59:33;20.70;;;9.98;;
41059;SDS011;26811;53.160;8.202;2023-02-28T02:04:46;18.58;;;9.63;;
41059;SDS011;26811;53.160;8.202;2023-02-28T02:09:59;17.13;;;9.27;;
41059;SDS011;26811;53.160;8.202;2023-02-28T02:15:35;17.63;;;10.07;;
41059;SDS011;26811;53.160;8.202;2023-02-28T02:26:11;16.25;;;9.23;;
41059;SDS011;26811;53.160;8.202;2023-02-28T02:32:07;18.63;;;10.02;;
41059;SDS011;26811;53.160;8.202;2023-02-28T02:47:37;18.35;;;9.20;;
41059;SDS011;26811;53.160;8.202;2023-02-28T02:52:41;18.00;;;9.67;;
41059;SDS011;26811;53.160;8.202;2023-02-28T02:57:50;19.27;;;9.68;;
41059;SDS011;26811;53.160;8.202;2023-02-28T03:02:57;15.52;;;9.27;;
41059;SDS011;26811;53.160;8.202;2023-02-28T03:07:59;18.02;;;9.77;;
41059;SDS011;26811;53.160;8.202;2023-02-28T03:13:27;18.58;;;8.63;;
41059;SDS011;26811;53.160;8.202;2023-02-28T03:18:43;15.10;;;7.68;;
41059;SDS011;26811;53.160;8.202;2023-02-28T03:24:11;13.38;;;8.40;;
41059;SDS011;26811;53.160;8.202;2023-02-28T03:29:21;17.25;;;7.65;;
41059;SDS011;26811;53.160;8.202;2023-02-28T03:34:38;21.10;;;8.10;;
41059;SDS011;26811;53.160;8.202;2023-02-28T03:45:36;16.00;;;7.95;;
41059;SDS011;26811;53.160;8.202;2023-02-28T03:50:38;16.17;;;7.88;;
41059;SDS011;26811;53.160;8.202;2023-02-28T03:55:42;15.60;;;8.23;;
41059;SDS011;26811;53.160;8.202;2023-02-28T04:00:49;15.40;;;8.07;;
41059;SDS011;26811;53.160;8.202;2023-02-28T04:06:08;13.80;;;7.65;;
41059;SDS011;26811;53.160;8.202;2023-02-28T04:11:18;12.25;;;8.00;;
41059;SDS011;26811;53.160;8.202;2023-02-28T04:16:27;14.90;;;8.13;;
41059;SDS011;26811;53.160;8.202;2023-02-28T04:21:28;13.38;;;8.70;;
41059;SDS011;26811;53.160;8.202;2023-02-28T04:26:30;20.10;;;8.45;;
41059;SDS011;26811;53.160;8.202;2023-02-28T04:31:35;19.90;;;9.82;;
41059;SDS011;26811;53.160;8.202;2023-02-28T04:36:35;20.92;;;11.68;;
41059;SDS011;26811;53.160;8.202;2023-02-28T04:41:36;19.75;;;11.10;;
41059;SDS011;26811;53.160;8.202;2023-02-28T04:46:36;18.52;;;11.13;;
41059;SDS011;26811;53.160;8.202;2023-02-28T04:51:37;19.83;;;11.93;;
41059;SDS011;26811;53.160;8.202;2023-02-28T04:56:37;22.92;;;14.13;;
41059;SDS011;26811;53.160;8.202;2023-02-28T05:01:38;21.58;;;13.90;;
41059;SDS011;26811;53.160;8.202;2023-02-28T05:06:38;22.90;;;12.77;;
41059;SDS011;26811;53.160;8.202;2023-02-28T05:11:39;19.77;;;12.55;;
41059;SDS011;26811;53.160;8.202;2023-02-28T05:16:40;19.02;;;12.25;;
41059;SDS011;26811;53.160;8.202;2023-02-28T05:21:48;22.40;;;13.02;;
41059;SDS011;26811;53.160;8.202;2023-02-28T05:26:54;18.75;;;12.77;;
41059;SDS011;26811;53.160;8.202;2023-02-28T05:31:55;20.02;;;11.75;;
41059;SDS011;26811;53.160;8.202;2023-02-28T05:36:55;19.70;;;12.15;;
41059;SDS011;26811;53.160;8.202;2023-02-28T05:41:56;20.58;;;12.20;;
41059;SDS011;26811;53.160;8.202;2023-02-28T05:46:56;23.85;;;12.80;;
41059;SDS011;26811;53.160;8.202;2023-02-28T05:51:57;22.00;;;12.77;;
41059;SDS011;26811;53.160;8.202;2023-02-28T05:56:57;22.55;;;12.32;;
41059;SDS011;26811;53.160;8.202;2023-02-28T06:01:58;18.08;;;11.95;;
41059;SDS011;26811;53.160;8.202;2023-02-28T06:06:58;19.95;;;11.85;;
41059;SDS011;26811;53.160;8.202;2023-02-28T06:11:59;20.80;;;12.23;;
41059;SDS011;26811;53.160;8.202;2023-02-28T06:17:03;23.25;;;12.40;;
41059;SDS011;26811;53.160;8.202;2023-02-28T06:22:04;17.30;;;11.32;;
41059;SDS011;26811;53.160;8.202;2023-02-28T06:27:04;22.30;;;12.40;;
41059;SDS011;26811;53.160;8.202;2023-02-28T06:32:11;20.60;;;11.88;;
41059;SDS011;26811;53.160;8.202;2023-02-28T06:37:12;18.88;;;11.15;;
41059;SDS011;26811;53.160;8.202;2023-02-28T06:42:12;20.30;;;11.38;;
41059;SDS011;26811;53.160;8.202;2023-02-28T06:47:13;18.35;;;11.48;;
41059;SDS011;26811;53.160;8.202;2023-02-28T06:52:13;17.60;;;9.88;;
41059;SDS011;26811;53.160;8.202;2023-02-28T06:57:14;16.38;;;9.32;;
41059;SDS011;26811;53.160;8.202;2023-02-28T07:02:14;13.45;;;8.80;;
41059;SDS011;26811;53.160;8.202;2023-02-28T07:07:15;15.65;;;8.93;;
41059;SDS011;26811;53.160;8.202;2023-02-28T07:12:15;18.15;;;8.85;;
41059;SDS011;26811;53.160;8.202;2023-02-28T07:17:16;14.52;;;8.48;;
41059;SDS011;26811;53.160;8.202;2023-02-28T07:22:17;14.68;;;8.98;;
41059;SDS011;26811;53.160;8.202;2023-02-28T07:27:17;13.68;;;8.57;;
41059;SDS011;26811;53.160;8.202;2023-02-28T07:32:25;12.77;;;8.40;;
41059;SDS011;26811;53.160;8.202;2023-02-28T07:37:25;14.10;;;7.72;;
41059;SDS011;26811;53.160;8.202;2023-02-28T07:42:26;13.05;;;7.55;;
41059;SDS011;26811;53.160;8.202;2023-02-28T07:47:28;19.08;;;8.23;;
41059;SDS011;26811;53.160;8.202;2023-02-28T07:52:29;16.25;;;7.22;;
41059;SDS011;26811;53.160;8.202;2023-02-28T07:57:30;12.68;;;7.00;;
41059;SDS011;26811;53.160;8.202;2023-02-28T08:02:31;20.08;;;8.05;;
41059;SDS011;26811;53.160;8.202;2023-02-28T08:07:31;13.02;;;7.07;;
41059;SDS011;26811;53.160;8.202;2023-02-28T08:12:33;9.52;;;6.60;;
41059;SDS011;26811;53.160;8.202;2023-02-28T08:17:33;13.32;;;6.68;;
41059;SDS011;26811;53.160;8.202;2023-02-28T08:22:34;10.57;;;5.95;;
41059;SDS011;26811;53.160;8.202;2023-02-28T08:27:35;9.25;;;5.38;;
41059;SDS011;26811;53.160;8.202;2023-02-28T08:32:36;8.82;;;5.53;;
41059;SDS011;26811;53.160;8.202;2023-02-28T08:37:37;11.50;;;5.38;;
41059;SDS011;26811;53.160;8.202;2023-02-28T08:42:37;10.35;;;5.35;;
41059;SDS011;26811;53.160;8.202;2023-02-28T08:47:38;12.02;;;5.50;;
41059;SDS011;26811;53.160;8.202;2023-02-28T08:52:38;7.95;;;4.85;;
41059;SDS011;26811;53.160;8.202;2023-02-28T08:57:41;8.07;;;4.65;;
41059;SDS011;26811;53.160;8.202;2023-02-28T09:02:42;8.70;;;4.63;;
41059;SDS011;26811;53.160;8.202;2023-02-28T09:07:43;13.50;;;4.20;;
41059;SDS011;26811;53.160;8.202;2023-02-28T09:12:46;6.97;;;4.70;;
41059;SDS011;26811;53.160;8.202;2023-02-28T09:17:47;7.32;;;4.20;;
41059;SDS011;26811;53.160;8.202;2023-02-28T09:22:47;10.30;;;4.10;;
41059;SDS011;26811;53.160;8.202;2023-02-28T09:27:48;7.93;;;3.85;;
41059;SDS011;26811;53.160;8.202;2023-02-28T09:32:49;10.75;;;4.03;;
41059;SDS011;26811;53.160;8.202;2023-02-28T09:37:53;5.78;;;3.15;;
41059;SDS011;26811;53.160;8.202;2023-02-28T09:42:54;5.55;;;3.45;;
41059;SDS011;26811;53.160;8.202;2023-02-28T09:47:58;3.20;;;2.90;;
41059;SDS011;26811;53.160;8.202;2023-02-28T09:53:21;5.25;;;2.97;;
41059;SDS011;26811;53.160;8.202;2023-02-28T10:03:40;5.07;;;3.10;;
41059;SDS011;26811;53.160;8.202;2023-02-28T10:08:56;3.53;;;3.05;;
41059;SDS011;26811;53.160;8.202;2023-02-28T10:19:11;5.35;;;3.42;;
41059;SDS011;26811;53.160;8.202;2023-02-28T10:24:23;4.78;;;2.75;;
41059;SDS011;26811;53.160;8.202;2023-02-28T10:29:27;5.03;;;2.88;;
41059;SDS011;26811;53.160;8.202;2023-02-28T10:34:31;6.05;;;3.15;;
41059;SDS011;26811;53.160;8.202;2023-02-28T10:39:42;4.82;;;3.25;;
41059;SDS011;26811;53.160;8.202;2023-02-28T10:49:46;3.35;;;2.90;;
41059;SDS011;26811;53.160;8.202;2023-02-28T10:54:49;2.92;;;2.70;;
41059;SDS011;26811;53.160;8.202;2023-02-28T10:59:52;3.50;;;2.60;;
41059;SDS011;26811;53.160;8.202;2023-02-28T11:05:28;2.58;;;2.38;;
41059;SDS011;26811;53.160;8.202;2023-02-28T11:10:32;4.35;;;2.67;;
41059;SDS011;26811;53.160;8.202;2023-02-28T11:20:36;4.38;;;2.72;;
41059;SDS011;26811;53.160;8.202;2023-02-28T11:25:38;4.75;;;2.83;;
41059;SDS011;26811;53.160;8.202;2023-02-28T11:30:40;4.60;;;2.75;;
41059;SDS011;26811;53.160;8.202;2023-02-28T11:35:41;6.53;;;2.78;;
41059;SDS011;26811;53.160;8.202;2023-02-28T11:40:47;3.83;;;2.55;;
41059;SDS011;26811;53.160;8.202;2023-02-28T11:51:47;3.80;;;2.65;;
41059;SDS011;26811;53.160;8.202;2023-02-28T11:56:55;3.85;;;3.45;;
41059;SDS011;26811;53.160;8.202;2023-02-28T12:02:03;3.60;;;2.47;;
41059;SDS011;26811;53.160;8.202;2023-02-28T12:07:26;3.63;;;2.85;;
41059;SDS011;26811;53.160;8.202;2023-02-28T12:12:36;3.28;;;2.70;;
41059;SDS011;26811;53.160;8.202;2023-02-28T12:17:48;3.42;;;2.55;;
41059;SDS011;26811;53.160;8.202;2023-02-28T12:28:27;3.05;;;2.60;;
41059;SDS011;26811;53.160;8.202;2023-02-28T12:33:38;5.38;;;3.05;;
41059;SDS011;26811;53.160;8.202;2023-02-28T12:38:57;3.95;;;2.80;;
41059;SDS011;26811;53.160;8.202;2023-02-28T12:44:17;3.70;;;2.78;;
41059;SDS011;26811;53.160;8.202;2023-02-28T12:50:06;4.32;;;2.80;;
41059;SDS011;26811;53.160;8.202;2023-02-28T12:55:15;4.40;;;2.72;;
41059;SDS011;26811;53.160;8.202;2023-02-28T13:00:33;3.05;;;2.75;;
41059;SDS011;26811;53.160;8.202;2023-02-28T13:11:06;4.03;;;3.25;;
41059;SDS011;26811;53.160;8.202;2023-02-28T13:21:10;3.72;;;2.72;;
41059;SDS011;26811;53.160;8.202;2023-02-28T13:37:30;5.28;;;3.30;;
41059;SDS011;26811;53.160;8.202;2023-02-28T13:42:35;4.93;;;3.72;;
41059;SDS011;26811;53.160;8.202;2023-02-28T13:47:53;3.28;;;2.97;;
41059;SDS011;26811;53.160;8.202;2023-02-28T14:08:16;4.07;;;2.95;;
41059;SDS011;26811;53.160;8.202;2023-02-28T14:18:37;4.00;;;3.05;;
41059;SDS011;26811;53.160;8.202;2023-02-28T14:23:49;9.35;;;3.63;;
41059;SDS011;26811;53.160;8.202;2023-02-28T14:29:14;4.70;;;3.10;;
41059;SDS011;26811;53.160;8.202;2023-02-28T14:34:27;3.65;;;2.97;;
41059;SDS011;26811;53.160;8.202;2023-02-28T14:39:40;6.57;;;3.30;;
41059;SDS011;26811;53.160;8.202;2023-02-28T14:44:41;3.72;;;3.15;;
41059;SDS011;26811;53.160;8.202;2023-02-28T14:49:43;5.57;;;3.10;;
41059;SDS011;26811;53.160;8.202;2023-02-28T15:00:05;6.45;;;3.45;;
41059;SDS011;26811;53.160;8.202;2023-02-28T15:05:28;6.28;;;3.42;;
41059;SDS011;26811;53.160;8.202;2023-02-28T15:10:33;6.50;;;3.47;;
41059;SDS011;26811;53.160;8.202;2023-02-28T15:15:41;4.50;;;3.60;;
41059;SDS011;26811;53.160;8.202;2023-02-28T15:20:42;4.22;;;3.10;;
41059;SDS011;26811;53.160;8.202;2023-02-28T15:25:44;4.90;;;3.65;;
41059;SDS011;26811;53.160;8.202;2023-02-28T15:36:29;7.30;;;3.88;;
41059;SDS011;26811;53.160;8.202;2023-02-28T15:41:36;5.15;;;3.50;;
41059;SDS011;26811;53.160;8.202;2023-02-28T15:46:41;6.30;;;4.00;;
41059;SDS011;26811;53.160;8.202;2023-02-28T15:51:45;5.60;;;3.55;;
41059;SDS011;26811;53.160;8.202;2023-02-28T15:56:46;4.28;;;3.80;;
41059;SDS011;26811;53.160;8.202;2023-02-28T16:02:04;6.07;;;3.70;;
41059;SDS011;26811;53.160;8.202;2023-02-28T16:07:17;6.00;;;3.97;;
41059;SDS011;26811;53.160;8.202;2023-02-28T16:12:18;5.93;;;3.97;;
41059;SDS011;26811;53.160;8.202;2023-02-28T16:17:21;4.13;;;3.65;;
41059;SDS011;26811;53.160;8.202;2023-02-28T16:22:24;5.72;;;4.10;;
41059;SDS011;26811;53.160;8.202;2023-02-28T16:27:26;4.00;;;3.60;;
41059;SDS011;26811;53.160;8.202;2023-02-28T16:32:35;6.25;;;3.90;;
41059;SDS011;26811;53.160;8.202;2023-02-28T16:37:36;6.13;;;3.53;;
41059;SDS011;26811;53.160;8.202;2023-02-28T16:42:37;6.60;;;3.55;;
41059;SDS011;26811;53.160;8.202;2023-02-28T16:47:38;6.78;;;4.00;;
41059;SDS011;26811;53.160;8.202;2023-02-28T16:52:39;7.68;;;4.18;;
41059;SDS011;26811;53.160;8.202;2023-02-28T16:57:39;6.25;;;4.05;;
41059;SDS011;26811;53.160;8.202;2023-02-28T17:02:40;7.15;;;4.30;;
41059;SDS011;26811;53.160;8.202;2023-02-28T17:07:41;7.65;;;6.22;;
41059;SDS011;26811;53.160;8.202;2023-02-28T17:12:42;7.68;;;4.32;;
41059;SDS011;26811;53.160;8.202;2023-02-28T17:17:44;7.15;;;4.35;;
41059;SDS011;26811;53.160;8.202;2023-02-28T17:22:46;6.07;;;4.10;;
41059;SDS011;26811;53.160;8.202;2023-02-28T17:27:46;7.88;;;4.40;;
41059;SDS011;26811;53.160;8.202;2023-02-28T17:32:47;6.20;;;4.38;;
41059;SDS011;26811;53.160;8.202;2023-02-28T17:37:48;5.65;;;4.28;;
41059;SDS011;26811;53.160;8.202;2023-02-28T17:42:49;7.07;;;4.82;;
41059;SDS011;26811;53.160;8.202;2023-02-28T17:47:52;10.03;;;6.10;;
41059;SDS011;26811;53.160;8.202;2023-02-28T17:52:52;12.25;;;6.57;;
41059;SDS011;26811;53.160;8.202;2023-02-28T17:57:53;10.85;;;7.13;;
41059;SDS011;26811;53.160;8.202;2023-02-28T18:02:53;11.27;;;7.22;;
41059;SDS011;26811;53.160;8.202;2023-02-28T18:07:54;12.98;;;7.57;;
41059;SDS011;26811;53.160;8.202;2023-02-28T18:12:54;12.43;;;7.82;;
41059;SDS011;26811;53.160;8.202;2023-02-28T18:17:55;15.45;;;7.78;;
41059;SDS011;26811;53.160;8.202;2023-02-28T18:22:55;16.77;;;8.60;;
41059;SDS011;26811;53.160;8.202;2023-02-28T18:27:56;15.60;;;8.38;;
41059;SDS011;26811;53.160;8.202;2023-02-28T18:33:01;13.80;;;8.13;;
41059;SDS011;26811;53.160;8.202;2023-02-28T18:43:04;15.68;;;9.25;;
41059;SDS011;26811;53.160;8.202;2023-02-28T18:48:05;17.35;;;9.65;;
41059;SDS011;26811;53.160;8.202;2023-02-28T18:53:06;17.45;;;10.15;;
41059;SDS011;26811;53.160;8.202;2023-02-28T18:58:06;19.10;;;10.35;;
41059;SDS011;26811;53.160;8.202;2023-02-28T19:03:08;20.30;;;10.73;;
41059;SDS011;26811;53.160;8.202;2023-02-28T19:08:08;19.30;;;11.07;;
41059;SDS011;26811;53.160;8.202;2023-02-28T19:13:09;24.90;;;12.05;;
41059;SDS011;26811;53.160;8.202;2023-02-28T19:18:09;32.47;;;15.20;;
41059;SDS011;26811;53.160;8.202;2023-02-28T19:23:10;30.52;;;16.58;;
41059;SDS011;26811;53.160;8.202;2023-02-28T19:28:12;35.03;;;17.88;;
41059;SDS011;26811;53.160;8.202;2023-02-28T19:33:13;36.58;;;18.20;;
41059;SDS011;26811;53.160;8.202;2023-02-28T19:38:14;44.47;;;19.42;;
41059;SDS011;26811;53.160;8.202;2023-02-28T19:43:15;57.60;;;23.70;;
41059;SDS011;26811;53.160;8.202;2023-02-28T19:48:16;57.88;;;24.33;;
41059;SDS011;26811;53.160;8.202;2023-02-28T19:53:16;69.85;;;27.95;;
41059;SDS011;26811;53.160;8.202;2023-02-28T19:58:17;78.07;;;28.42;;
41059;SDS011;26811;53.160;8.202;2023-02-28T20:03:18;69.45;;;27.40;;
41059;SDS011;26811;53.160;8.202;2023-02-28T20:08:19;58.72;;;28.08;;
41059;SDS011;26811;53.160;8.202;2023-02-28T20:13:19;56.00;;;25.17;;
41059;SDS011;26811;53.160;8.202;2023-02-28T20:18:20;46.03;;;23.63;;
41059;SDS011;26811;53.160;8.202;2023-02-28T20:23:20;54.55;;;26.88;;
41059;SDS011;26811;53.160;8.202;2023-02-28T20:28:21;48.85;;;23.90;;
41059;SDS011;26811;53.160;8.202;2023-02-28T20:33:21;50.97;;;24.50;;
41059;SDS011;26811;53.160;8.202;2023-02-28T20:38:22;41.63;;;22.70;;
41059;SDS011;26811;53.160;8.202;2023-02-28T20:43:22;41.22;;;21.05;;
41059;SDS011;26811;53.160;8.202;2023-02-28T20:48:23;45.20;;;21.40;;
41059;SDS011;26811;53.160;8.202;2023-02-28T20:53:25;38.45;;;20.02;;
41059;SDS011;26811;53.160;8.202;2023-02-28T20:58:27;40.63;;;21.25;;
41059;SDS011;26811;53.160;8.202;2023-02-28T21:08:31;38.05;;;18.35;;
41059;SDS011;26811;53.160;8.202;2023-02-28T21:13:33;41.00;;;19.77;;
41059;SDS011;26811;53.160;8.202;2023-02-28T21:18:34;39.65;;;20.50;;
41059;SDS011;26811;53.160;8.202;2023-02-28T21:23:36;43.17;;;21.75;;
41059;SDS011;26811;53.160;8.202;2023-02-28T21:28:37;40.35;;;20.88;;
41059;SDS011;26811;53.160;8.202;2023-02-28T21:33:43;41.60;;;21.50;;
41059;SDS011;26811;53.160;8.202;2023-02-28T21:38:45;47.47;;;21.48;;
41059;SDS011;26811;53.160;8.202;2023-02-28T21:43:46;41.47;;;20.30;;
41059;SDS011;26811;53.160;8.202;2023-02-28T21:48:47;37.08;;;18.92;;
41059;SDS011;26811;53.160;8.202;2023-02-28T21:53:48;43.08;;;19.92;;
41059;SDS011;26811;53.160;8.202;2023-02-28T21:58:49;43.88;;;20.65;;
41059;SDS011;26811;53.160;8.202;2023-02-28T22:03:51;42.13;;;20.77;;
41059;SDS011;26811;53.160;8.202;2023-02-28T22:08:52;38.75;;;19.67;;
41059;SDS011;26811;53.160;8.202;2023-02-28T22:13:55;46.00;;;20.35;;
41059;SDS011;26811;53.160;8.202;2023-02-28T22:18:56;45.70;;;20.48;;
41059;SDS011;26811;53.160;8.202;2023-02-28T22:23:57;53.50;;;20.85;;
41059;SDS011;26811;53.160;8.202;2023-02-28T22:28:57;42.92;;;20.25;;
41059;SDS011;26811;53.160;8.202;2023-02-28T22:34:05;42.75;;;20.27;;
41059;SDS011;26811;53.160;8.202;2023-02-28T22:39:07;40.33;;;19.60;;
41059;SDS011;26811;53.160;8.202;2023-02-28T22:44:09;48.67;;;21.48;;
41059;SDS011;26811;53.160;8.202;2023-02-28T22:49:09;47.63;;;21.92;;
41059;SDS011;26811;53.160;8.202;2023-02-28T22:54:10;49.15;;;22.45;;
41059;SDS011;26811;53.160;8.202;2023-02-28T22:59:11;45.78;;;21.63;;
41059;SDS011;26811;53.160;8.202;2023-02-28T23:04:13;48.20;;;22.77;;
41059;SDS011;26811;53.160;8.202;2023-02-28T23:09:15;51.90;;;22.65;;
41059;SDS011;26811;53.160;8.202;2023-02-28T23:14:18;50.67;;;23.10;;
41059;SDS011;26811;53.160;8.202;2023-02-28T23:19:22;49.70;;;22.92;;
41059;SDS011;26811;53.160;8.202;2023-02-28T23:24:26;50.45;;;23.42;;
41059;SDS011;26811;53.160;8.202;2023-02-28T23:29:28;57.63;;;23.53;;
41059;SDS011;26811;53.160;8.202;2023-02-28T23:34:28;50.58;;;22.60;;
41059;SDS011;26811;53.160;8.202;2023-02-28T23:39:29;49.88;;;22.42;;
41059;SDS011;26811;53.160;8.202;2023-02-28T23:44:30;50.03;;;22.83;;
41059;SDS011;26811;53.160;8.202;2023-02-28T23:49:31;48.83;;;23.40;;
41059;SDS011;26811;53.160;8.202;2023-02-28T23:54:31;50.40;;;23.50;;
41059;SDS011;26811;53.160;8.202;2023-02-28T23:59:33;50.17;;;24.73;;
